Time,TemperatureF,DewpointF,PressureIn,WindDirection,WindDirectionDegrees,WindSpeedMPH,WindSpeedGustMPH,Humidity,HourlyPrecipIn,Conditions,Clouds,dailyrainin,SoftwareType,DateUTC
2013-04-03 00:01:00,34.6,23.0,30.20,NW,309,1.0,2.0,63,0.00,,,0.00,weatherlink.com 1.10,2013-04-03 04:01:00,
2013-04-03 00:17:00,36.1,17.0,30.20,West,278,1.0,2.0,47,0.00,,,0.00,weatherlink.com 1.10,2013-04-03 04:17:00,
2013-04-03 00:32:00,37.0,17.0,30.20,WNW,302,3.0,6.0,45,0.00,,,0.00,weatherlink.com 1.10,2013-04-03 04:32:00,
2013-04-03 00:47:00,36.7,19.0,30.21,WNW,297,1.0,3.0,48,0.00,,,0.00,weatherlink.com 1.10,2013-04-03 04:47:00,
2013-04-03 01:02:00,36.5,19.0,30.21,NW,304,2.0,3.0,49,0.00,,,0.00,weatherlink.com 1.10,2013-04-03 05:02:00,
2013-04-03 01:17:00,36.5,21.0,30.21,NNW,343,2.0,3.0,53,0.00,,,0.00,weatherlink.com 1.10,2013-04-03 05:17:00,
2013-04-03 01:32:00,35.5,18.0,30.22,NNW,343,1.0,1.0,50,0.00,,,0.00,weatherlink.com 1.10,2013-04-03 05:32:00,
2013-04-03 01:47:00,35.5,23.0,30.22,NNW,340,3.0,4.0,60,0.00,,,0.00,weatherlink.com 1.10,2013-04-03 05:47:00,
2013-04-03 02:02:00,36.8,19.0,30.22,NNW,333,5.0,6.0,49,0.00,,,0.00,weatherlink.com 1.10,2013-04-03 06:02:00,
2013-04-03 02:17:00,39.1,18.0,30.22,NNW,338,7.0,13.0,42,0.00,,,0.00,weatherlink.com 1.10,2013-04-03 06:17:00,
2013-04-03 02:32:00,39.4,18.0,30.22,NW,321,5.0,12.0,42,0.00,,,0.00,weatherlink.com 1.10,2013-04-03 06:32:00,
2013-04-03 02:47:00,39.1,18.0,30.22,NW,316,3.0,9.0,42,0.00,,,0.00,weatherlink.com 1.10,2013-04-03 06:47:00,
2013-04-03 03:02:00,38.7,17.0,30.23,NNW,336,3.0,5.0,42,0.00,,,0.00,weatherlink.com 1.10,2013-04-03 07:02:00,
2013-04-03 03:17:00,37.8,19.0,30.23,NW,323,2.0,3.0,47,0.00,,,0.00,weatherlink.com 1.10,2013-04-03 07:17:00,
2013-04-03 03:32:00,37.0,18.0,30.23,NW,308,1.0,3.0,46,0.00,,,0.00,weatherlink.com 1.10,2013-04-03 07:32:00,
2013-04-03 03:47:00,36.5,17.0,30.23,NW,308,3.0,4.0,45,0.00,,,0.00,weatherlink.com 1.10,2013-04-03 07:47:00,
2013-04-03 04:02:00,36.3,17.0,30.23,WNW,300,2.0,5.0,45,0.00,,,0.00,weatherlink.com 1.10,2013-04-03 08:02:00,
2013-04-03 04:17:00,36.3,17.0,30.24,NW,304,3.0,5.0,45,0.00,,,0.00,weatherlink.com 1.10,2013-04-03 08:17:00,
2013-04-03 04:32:00,36.1,17.0,30.24,NW,311,2.0,4.0,46,0.00,,,0.00,weatherlink.com 1.10,2013-04-03 08:32:00,
2013-04-03 04:47:00,35.8,17.0,30.24,WNW,302,1.0,3.0,47,0.00,,,0.00,weatherlink.com 1.10,2013-04-03 08:47:00,
2013-04-03 05:02:00,35.3,16.0,30.24,WNW,293,3.0,3.0,45,0.00,,,0.00,weatherlink.com 1.10,2013-04-03 09:02:00,
2013-04-03 05:17:00,34.9,20.0,30.24,WNW,293,1.0,2.0,55,0.00,,,0.00,weatherlink.com 1.10,2013-04-03 09:17:00,
2013-04-03 05:32:00,33.0,19.0,30.25,WNW,302,1.0,2.0,56,0.00,,,0.00,weatherlink.com 1.10,2013-04-03 09:32:00,
2013-04-03 05:47:00,32.6,18.0,30.25,WNW,302,2.0,2.0,56,0.00,,,0.00,weatherlink.com 1.10,2013-04-03 09:47:00,
2013-04-03 06:02:00,32.3,20.0,30.25,NNW,336,2.0,2.0,62,0.00,,,0.00,weatherlink.com 1.10,2013-04-03 10:02:00,
2013-04-03 06:17:00,32.0,22.0,30.25,NNW,332,2.0,2.0,67,0.00,,,0.00,weatherlink.com 1.10,2013-04-03 10:17:00,
2013-04-03 06:32:00,32.3,22.0,30.26,NW,308,1.0,2.0,67,0.00,,,0.00,weatherlink.com 1.10,2013-04-03 10:32:00,
2013-04-03 06:47:00,32.7,20.0,30.27,NW,311,2.0,3.0,59,0.00,,,0.00,weatherlink.com 1.10,2013-04-03 10:47:00,
2013-04-03 07:02:00,34.5,18.0,30.27,WNW,300,2.0,5.0,52,0.00,,,0.00,weatherlink.com 1.10,2013-04-03 11:02:00,
2013-04-03 07:17:00,35.9,18.0,30.27,NW,308,3.0,6.0,49,0.00,,,0.00,weatherlink.com 1.10,2013-04-03 11:17:00,
2013-04-03 07:32:00,37.4,18.0,30.28,WNW,297,5.0,6.0,46,0.00,,,0.00,weatherlink.com 1.10,2013-04-03 11:32:00,
2013-04-03 07:47:00,38.7,18.0,30.28,WNW,295,7.0,8.0,43,0.00,,,0.00,weatherlink.com 1.10,2013-04-03 11:47:00,
2013-04-03 08:02:00,39.6,18.0,30.28,NW,309,6.0,8.0,41,0.00,,,0.00,weatherlink.com 1.10,2013-04-03 12:02:00,
2013-04-03 08:18:00,40.3,18.0,30.28,NW,314,5.0,10.0,41,0.00,,,0.00,weatherlink.com 1.10,2013-04-03 12:18:00,
2013-04-03 08:33:00,40.7,18.0,30.27,NW,308,8.0,12.0,40,0.00,,,0.00,weatherlink.com 1.10,2013-04-03 12:33:00,
2013-04-03 08:48:00,41.3,18.0,30.27,WNW,294,10.0,13.0,39,0.00,,,0.00,weatherlink.com 1.10,2013-04-03 12:48:00,
2013-04-03 09:03:00,41.6,18.0,30.28,North,355,13.0,14.0,38,0.00,,,0.00,weatherlink.com 1.10,2013-04-03 13:03:00,
2013-04-03 09:18:00,41.8,20.0,30.28,NW,318,8.0,15.0,41,0.00,,,0.00,weatherlink.com 1.10,2013-04-03 13:18:00,
2013-04-03 09:33:00,42.2,19.0,30.28,NW,309,6.0,18.0,39,0.00,,,0.00,weatherlink.com 1.10,2013-04-03 13:33:00,
2013-04-03 09:48:00,42.2,18.0,30.28,NW,321,15.0,17.0,38,0.00,,,0.00,weatherlink.com 1.10,2013-04-03 13:48:00,
2013-04-03 10:03:00,43.1,18.0,30.28,NW,312,9.0,17.0,36,0.00,,,0.00,weatherlink.com 1.10,2013-04-03 14:03:00,
2013-04-03 10:18:00,43.2,18.0,30.28,North,1,15.0,18.0,36,0.00,,,0.00,weatherlink.com 1.10,2013-04-03 14:18:00,
2013-04-03 10:33:00,43.8,18.0,30.28,NW,305,13.0,23.0,35,0.00,,,0.00,weatherlink.com 1.10,2013-04-03 14:33:00,
2013-04-03 10:48:00,44.0,16.0,30.28,NW,304,8.0,21.0,33,0.00,,,0.00,weatherlink.com 1.10,2013-04-03 14:48:00,
2013-04-03 11:03:00,44.0,17.0,30.28,WNW,297,9.0,20.0,34,0.00,,,0.00,weatherlink.com 1.10,2013-04-03 15:03:00,
2013-04-03 11:18:00,43.9,16.0,30.28,NW,312,14.0,21.0,33,0.00,,,0.00,weatherlink.com 1.10,2013-04-03 15:18:00,
2013-04-03 11:33:00,44.1,14.0,30.28,NW,313,12.0,23.0,30,0.00,,,0.00,weatherlink.com 1.10,2013-04-03 15:33:00,
2013-04-03 11:48:00,44.5,16.0,30.27,NW,312,10.0,25.0,32,0.00,,,0.00,weatherlink.com 1.10,2013-04-03 15:48:00,
2013-04-03 12:03:00,44.8,16.0,30.26,North,349,10.0,20.0,31,0.00,,,0.00,weatherlink.com 1.10,2013-04-03 16:03:00,
2013-04-03 12:33:00,45.3,15.0,30.25,North,3,16.0,20.0,30,0.00,,,0.00,weatherlink.com 1.10,2013-04-03 16:33:00,
2013-04-03 12:48:00,46.3,17.0,30.24,NW,323,11.0,16.0,31,0.00,,,0.00,weatherlink.com 1.10,2013-04-03 16:48:00,
2013-04-03 13:19:00,46.2,16.0,30.23,WNW,295,8.0,19.0,30,0.00,,,0.00,weatherlink.com 1.10,2013-04-03 17:19:00,
2013-04-03 14:04:00,47.2,15.0,30.22,North,360,11.0,22.0,28,0.00,,,0.00,weatherlink.com 1.10,2013-04-03 18:04:00,
2013-04-03 14:19:00,47.7,15.0,30.21,NW,307,9.0,14.0,27,0.00,,,0.00,weatherlink.com 1.10,2013-04-03 18:19:00,
2013-04-03 14:49:00,47.9,15.0,30.21,NW,309,14.0,25.0,27,0.00,,,0.00,weatherlink.com 1.10,2013-04-03 18:49:00,
2013-04-03 15:04:00,47.8,15.0,30.21,NNE,23,13.0,19.0,27,0.00,,,0.00,weatherlink.com 1.10,2013-04-03 19:04:00,
2013-04-03 15:19:00,48.7,14.0,30.21,NW,314,11.0,30.0,25,0.00,,,0.00,weatherlink.com 1.10,2013-04-03 19:19:00,
2013-04-03 15:34:00,48.2,14.0,30.22,NNE,15,14.0,25.0,25,0.00,,,0.00,weatherlink.com 1.10,2013-04-03 19:34:00,
2013-04-03 16:04:00,48.5,18.0,30.22,NNE,19,14.0,20.0,30,0.00,,,0.00,weatherlink.com 1.10,2013-04-03 20:04:00,
2013-04-03 16:19:00,49.3,16.0,30.22,NW,306,14.0,21.0,26,0.00,,,0.00,weatherlink.com 1.10,2013-04-03 20:19:00,
2013-04-03 17:04:00,49.4,15.0,30.23,NW,325,14.0,22.0,25,0.00,,,0.00,weatherlink.com 1.10,2013-04-03 21:04:00,
2013-04-03 17:19:00,49.6,16.0,30.25,NNE,12,17.0,22.0,26,0.00,,,0.00,weatherlink.com 1.10,2013-04-03 21:19:00,
2013-04-03 17:34:00,49.4,16.0,30.25,North,353,20.0,25.0,26,0.00,,,0.00,weatherlink.com 1.10,2013-04-03 21:34:00,
2013-04-03 17:49:00,49.3,16.0,30.26,North,359,11.0,24.0,26,0.00,,,0.00,weatherlink.com 1.10,2013-04-03 21:49:00,
2013-04-03 18:04:00,49.0,14.0,30.27,NNE,27,18.0,27.0,25,0.00,,,0.00,weatherlink.com 1.10,2013-04-03 22:04:00,
2013-04-03 18:19:00,48.7,15.0,30.28,NNE,19,13.0,26.0,26,0.00,,,0.00,weatherlink.com 1.10,2013-04-03 22:19:00,
2013-04-03 18:34:00,48.2,17.0,30.29,NNE,15,17.0,25.0,29,0.00,,,0.00,weatherlink.com 1.10,2013-04-03 22:34:00,
2013-04-03 18:49:00,47.5,15.0,30.30,NNE,28,18.0,22.0,27,0.00,,,0.00,weatherlink.com 1.10,2013-04-03 22:49:00,
2013-04-03 19:04:00,46.8,13.0,30.31,NE,36,18.0,19.0,26,0.00,,,0.00,weatherlink.com 1.10,2013-04-03 23:04:00,
2013-04-03 19:19:00,46.0,13.0,30.32,NNE,30,14.0,24.0,26,0.00,,,0.00,weatherlink.com 1.10,2013-04-03 23:19:00,
2013-04-03 19:34:00,45.4,15.0,30.32,NNE,23,17.0,19.0,29,0.00,,,0.00,weatherlink.com 1.10,2013-04-03 23:34:00,
2013-04-03 19:49:00,45.0,13.0,30.33,North,352,19.0,19.0,27,0.00,,,0.00,weatherlink.com 1.10,2013-04-03 23:49:00,
2013-04-03 20:04:00,44.6,12.0,30.33,NNE,20,11.0,18.0,27,0.00,,,0.00,weatherlink.com 1.10,2013-04-04 00:04:00,
2013-04-03 20:19:00,44.3,15.0,30.33,NNE,14,10.0,19.0,31,0.00,,,0.00,weatherlink.com 1.10,2013-04-04 00:19:00,
2013-04-03 20:34:00,43.9,16.0,30.34,NNE,26,22.0,22.0,33,0.00,,,0.00,weatherlink.com 1.10,2013-04-04 00:34:00,
2013-04-03 20:49:00,43.6,13.0,30.35,North,9,11.0,22.0,29,0.00,,,0.00,weatherlink.com 1.10,2013-04-04 00:49:00,
2013-04-03 21:04:00,43.1,15.0,30.36,NNE,25,6.0,19.0,32,0.00,,,0.00,weatherlink.com 1.10,2013-04-04 01:04:00,
2013-04-03 21:19:00,42.6,14.0,30.38,NE,39,11.0,16.0,32,0.00,,,0.00,weatherlink.com 1.10,2013-04-04 01:19:00,
2013-04-03 21:34:00,42.2,16.0,30.38,NNE,25,8.0,15.0,34,0.00,,,0.00,weatherlink.com 1.10,2013-04-04 01:34:00,
2013-04-03 21:49:00,41.6,18.0,30.39,NNW,340,3.0,10.0,39,0.00,,,0.00,weatherlink.com 1.10,2013-04-04 01:49:00,
2013-04-03 22:04:00,40.9,19.0,30.40,NNE,19,11.0,11.0,42,0.00,,,0.00,weatherlink.com 1.10,2013-04-04 02:04:00,
2013-04-03 22:19:00,40.3,20.0,30.39,North,349,12.0,13.0,45,0.00,,,0.00,weatherlink.com 1.10,2013-04-04 02:19:00,
2013-04-03 22:34:00,39.5,19.0,30.39,NNW,347,6.0,11.0,43,0.00,,,0.00,weatherlink.com 1.10,2013-04-04 02:34:00,
2013-04-03 22:49:00,39.1,20.0,30.39,NNE,18,6.0,13.0,47,0.00,,,0.00,weatherlink.com 1.10,2013-04-04 02:49:00,
2013-04-03 23:04:00,38.6,19.0,30.39,NW,309,9.0,12.0,45,0.00,,,0.00,weatherlink.com 1.10,2013-04-04 03:04:00,
2013-04-03 23:19:00,38.1,19.0,30.40,NNW,329,5.0,10.0,46,0.00,,,0.00,weatherlink.com 1.10,2013-04-04 03:19:00,
2013-04-03 23:34:00,37.7,19.0,30.40,NW,326,4.0,7.0,47,0.00,,,0.00,weatherlink.com 1.10,2013-04-04 03:34:00,
2013-04-03 23:49:00,37.1,19.0,30.41,NW,307,3.0,6.0,48,0.00,,,0.00,weatherlink.com 1.10,2013-04-04 03:49:00,